EHRD/RTM METAR and TAF weather

Enter ICAO airport designator
Station Type Date Time Source
EHRD METAR 2018/01/22 19:55 UTC NOAA

EHRD 221955Z AUTO 27008KT 240V310 9999 OVC027 07/05 Q1015 NOSIG


Station Type Date Time Source
EHRD Decoded METAR 2018/01/22 19:55 UTC NOAA

Rotterdam Airport Zestienhoven, Netherlands (EHRD) 51-57N 004-27E -4M
Jan 22, 2018 - 02:55 PM EST / 2018.01.22 1955 UTC
Wind: from the W (270 degrees) at 9 MPH (8 KT) (direction variable):0
Visibility: greater than 7 mile(s):0
Sky conditions: overcast
Temperature: 44 F (7 C)
Dew Point: 41 F (5 C)
Relative Humidity: 87%
Pressure (altimeter): 29.97 in. Hg (1015 hPa)
ob: EHRD 221955Z AUTO 27008KT 240V310 9999 OVC027 07/05 Q1015 NOSIG
cycle: 20

Station Type Date Time Source
EHRD TAF 2018/01/22 18:27 UTC NOAA

TAF EHRD 221719Z 2218/2324 29012KT 9999 FEW020 BKN045
BECMG 2302/2305 20008KT PROB30 2303/2309 6000 BKN010
BECMG 2311/2314 21018KT 6000 RADZ BKN012
BECMG 2314/2317 4000 BR -DZ BKN006 PROB30
TEMPO 2317/2321 2000 DZ BKN004
BECMG 2319/2322 6000 NSW BKN010 PROB30
TEMPO 2322/2324 4000 -DZ BKN006


Example: see airport list